Time;durP1;ratioP1;P1;durP2;ratioP2;P2;SDS_P1;SDS_P2;PMS_P1;PMS_P2;Temp;Humidity;BMP_temperature;BMP_pressure;BME280_temperature;BME280_humidity;BME280_pressure;Samples;Min_cycle;Max_cycle;Signal;HPM_P1;HPM_P2
2022/12/25 00:00:44;;;;;;;108.78;8.75;;;3.80;99.90;;;;;;5024762;28;20049;-62
2022/12/25 00:03:10;;;;;;;428.80;14.80;;;3.70;99.90;;;;;;5023914;28;20050;-62
2022/12/25 00:05:39;;;;;;;395.67;13.07;;;3.70;99.90;;;;;;5024197;28;20045;-62
2022/12/25 00:08:06;;;;;;;230.93;9.55;;;3.80;99.90;;;;;;5007379;28;20056;-63
2022/12/25 00:10:32;;;;;;;193.77;8.50;;;3.70;99.90;;;;;;5024280;28;20045;-62
2022/12/25 00:12:57;;;;;;;176.55;9.20;;;3.70;99.90;;;;;;5025000;28;20056;-62
2022/12/25 00:15:23;;;;;;;153.30;8.70;;;3.70;99.90;;;;;;5006165;28;20053;-62
2022/12/25 00:17:49;;;;;;;165.10;9.07;;;3.70;99.90;;;;;;5024853;28;20043;-62
2022/12/25 00:20:15;;;;;;;89.80;8.82;;;3.70;99.90;;;;;;5027711;28;20041;-62
2022/12/25 00:22:40;;;;;;;62.33;9.02;;;3.70;99.90;;;;;;5010690;28;20496;-62
2022/12/25 00:25:06;;;;;;;74.65;9.68;;;3.70;99.90;;;;;;5011124;28;20053;-62
2022/12/25 00:27:33;;;;;;;94.90;10.57;;;3.70;99.90;;;;;;5028465;28;20042;-62
2022/12/25 00:29:59;;;;;;;90.68;10.27;;;3.70;99.90;;;;;;5028560;28;20365;-62
2022/12/25 00:32:25;;;;;;;167.27;11.93;;;3.70;99.90;;;;;;5010426;28;20445;-62
2022/12/25 00:34:51;;;;;;;108.03;10.68;;;3.70;99.90;;;;;;5010857;28;20084;-62
2022/12/25 00:37:17;;;;;;;73.40;10.52;;;3.70;99.90;;;;;;5027965;28;20536;-62
2022/12/25 00:39:43;;;;;;;50.60;9.90;;;3.70;99.90;;;;;;5010752;28;20491;-63
2022/12/25 00:42:18;;;;;;;163.15;11.48;;;3.70;99.90;;;;;;5027915;28;20091;-62
2022/12/25 00:44:48;;;;;;;50.15;9.35;;;3.60;99.90;;;;;;5027464;28;20084;-62
2022/12/25 00:47:15;;;;;;;52.65;11.18;;;3.60;99.90;;;;;;5010526;28;20056;-62
2022/12/25 00:49:41;;;;;;;54.25;10.45;;;3.60;99.90;;;;;;5027101;28;20046;-62
2022/12/25 00:52:07;;;;;;;81.65;11.02;;;3.70;99.90;;;;;;5028487;28;20045;-62
2022/12/25 00:54:33;;;;;;;79.05;13.35;;;3.70;99.90;;;;;;5008414;28;20088;-62
2022/12/25 00:56:58;;;;;;;67.28;13.00;;;3.70;99.90;;;;;;5027698;28;20033;-62
2022/12/25 00:59:24;;;;;;;92.40;14.27;;;3.80;99.90;;;;;;5027614;28;20425;-62
2022/12/25 01:01:50;;;;;;;88.63;13.75;;;3.90;99.90;;;;;;5026013;28;20487;-63
2022/12/25 01:04:16;;;;;;;90.03;13.68;;;4.10;99.90;;;;;;5010154;28;20052;-62
2022/12/25 01:06:42;;;;;;;76.18;13.88;;;4.10;99.90;;;;;;5013186;28;20116;-62
2022/12/25 01:11:52;;;;;;;108.53;14.05;;;4.30;99.90;;;;;;5016366;28;20045;-62
2022/12/25 01:14:18;;;;;;;80.03;11.23;;;4.40;99.90;;;;;;5027741;28;20045;-62
2022/12/25 01:16:44;;;;;;;83.13;12.50;;;4.40;99.90;;;;;;5006907;28;20393;-62
2022/12/25 01:19:10;;;;;;;83.25;12.32;;;4.50;99.90;;;;;;5007891;28;20381;-62
2022/12/25 01:21:36;;;;;;;105.20;14.60;;;4.50;99.90;;;;;;5005352;28;20088;-62
2022/12/25 01:24:02;;;;;;;155.15;16.48;;;4.40;99.90;;;;;;5018805;28;20045;-62
2022/12/25 01:26:28;;;;;;;166.38;14.85;;;4.40;99.90;;;;;;5026700;28;20170;-62
2022/12/25 01:28:54;;;;;;;149.77;14.75;;;4.40;99.90;;;;;;5027088;28;20041;-62
2022/12/25 01:31:22;;;;;;;146.07;14.98;;;4.30;99.90;;;;;;5026662;28;20132;-62
2022/12/25 01:33:48;;;;;;;246.13;15.98;;;4.30;99.90;;;;;;5027128;28;20045;-62
2022/12/25 01:36:17;;;;;;;315.63;18.52;;;4.30;99.90;;;;;;4981142;28;20492;-62
2022/12/25 01:38:44;;;;;;;355.67;19.38;;;4.20;99.90;;;;;;5027673;28;20140;-62
2022/12/25 01:41:11;;;;;;;254.23;16.17;;;4.20;99.90;;;;;;5008593;28;20575;-62
2022/12/25 01:43:58;;;;;;;485.45;23.42;;;4.20;99.90;;;;;;5027670;28;20133;-62
2022/12/25 01:46:24;;;;;;;332.40;17.10;;;4.20;99.90;;;;;;5001946;28;20058;-62
2022/12/25 01:48:52;;;;;;;445.90;19.83;;;4.20;99.90;;;;;;4992275;28;20042;-63
2022/12/25 01:51:36;;;;;;;365.10;21.77;;;4.20;99.90;;;;;;4979596;28;20051;-62
2022/12/25 01:54:05;;;;;;;423.88;20.67;;;4.20;99.90;;;;;;4968623;28;20038;-62
2022/12/25 01:56:33;;;;;;;321.38;18.67;;;4.20;99.90;;;;;;4967040;28;20058;-62
2022/12/25 01:59:01;;;;;;;241.55;17.35;;;4.10;99.90;;;;;;4978384;28;20548;-62
2022/12/25 02:01:26;;;;;;;306.63;18.17;;;4.10;99.90;;;;;;4973895;28;20054;-62
2022/12/25 02:03:57;;;;;;;199.65;16.20;;;4.20;99.90;;;;;;4971119;28;20489;-62
2022/12/25 02:06:23;;;;;;;;;;;4.20;99.90;;;;;;4968240;28;20852;-62
2022/12/25 02:08:49;;;;;;;238.23;14.35;;;4.20;99.90;;;;;;4978063;28;19921;-62
2022/12/25 02:11:55;;;;;;;210.20;18.40;;;4.20;99.90;;;;;;4972852;28;20097;-62
2022/12/25 02:14:01;;;;;;;223.23;16.30;;;4.30;99.90;;;;;;4973368;28;20106;-62
2022/12/25 02:16:31;;;;;;;136.50;16.40;;;4.30;99.90;;;;;;4966907;28;20057;-62
2022/12/25 02:19:20;;;;;;;76.75;12.68;;;4.30;99.90;;;;;;4968939;28;20497;-62
2022/12/25 02:21:45;;;;;;;126.38;14.45;;;4.40;99.90;;;;;;4975473;28;20050;-62
2022/12/25 02:24:33;;;;;;;113.90;16.13;;;4.40;99.90;;;;;;4967534;28;20496;-62
2022/12/25 02:27:45;;;;;;;129.73;15.80;;;4.40;99.90;;;;;;4968267;28;20043;-62
2022/12/25 02:30:11;;;;;;;93.20;14.07;;;4.50;99.90;;;;;;4896621;29;20044;-62
2022/12/25 02:34:01;;;;;;;99.00;15.07;;;4.50;99.90;;;;;;4906052;29;20079;-62
2022/12/25 02:35:45;;;;;;;85.95;14.32;;;4.50;99.90;;;;;;4951818;28;20062;-62
2022/12/25 02:38:30;;;;;;;80.25;13.45;;;4.60;99.90;;;;;;4967013;28;20053;-62
2022/12/25 02:41:00;;;;;;;78.00;14.30;;;4.70;99.90;;;;;;4977164;28;20049;-62
2022/12/25 03:12:07;;;;;;;61.90;13.00;;;5.40;99.90;;;;;;5023066;28;20443;-62
2022/12/25 03:17:17;;;;;;;67.40;12.45;;;5.40;99.90;;;;;;5025017;28;20049;-62
2022/12/25 03:28:02;;;;;;;87.72;12.38;;;5.50;99.90;;;;;;5025363;28;20042;-62
2022/12/25 03:31:10;;;;;;;68.65;12.07;;;5.50;99.90;;;;;;5024982;28;20049;-62
2022/12/25 03:36:39;;;;;;;67.85;10.50;;;5.60;99.90;;;;;;5024818;28;20088;-63
2022/12/25 04:37:55;;;;;;;39.20;9.68;;;6.30;99.90;;;;;;5005498;28;20093;-62
2022/12/25 04:40:21;;;;;;;48.30;11.10;;;6.30;99.90;;;;;;4990735;28;20084;-63
2022/12/25 04:42:49;;;;;;;50.33;10.10;;;6.30;99.90;;;;;;5023619;28;20088;-63
2022/12/25 04:45:15;;;;;;;59.00;10.05;;;6.30;99.90;;;;;;5024365;28;20056;-62
2022/12/25 04:47:42;;;;;;;47.20;9.55;;;6.30;99.90;;;;;;4986329;28;20119;-62
2022/12/25 04:50:08;;;;;;;54.40;9.75;;;6.40;99.90;;;;;;5001727;28;20447;-63
2022/12/25 04:52:38;;;;;;;53.42;11.60;;;6.40;99.90;;;;;;5014941;28;20049;-62
2022/12/25 04:55:06;;;;;;;39.20;10.05;;;6.40;99.90;;;;;;5024434;28;20124;-62
2022/12/25 04:57:32;;;;;;;47.88;10.93;;;6.40;99.90;;;;;;5024359;28;20049;-62
2022/12/25 04:59:58;;;;;;;45.60;10.13;;;6.50;99.90;;;;;;5003465;28;20481;-62
2022/12/25 05:02:24;;;;;;;52.28;10.98;;;6.50;99.90;;;;;;5023963;28;20049;-63
2022/12/25 05:04:49;;;;;;;45.45;12.10;;;6.50;99.90;;;;;;5023432;28;20049;-63
2022/12/25 05:07:15;;;;;;;43.95;10.52;;;6.60;99.90;;;;;;5027088;28;20038;-62
2022/12/25 05:09:41;;;;;;;60.83;12.13;;;6.60;99.90;;;;;;5020276;28;20038;-63
2022/12/25 05:12:08;;;;;;;61.35;14.43;;;6.60;99.90;;;;;;5021676;28;20510;-63
2022/12/25 05:14:33;;;;;;;44.58;10.57;;;6.70;99.90;;;;;;5010425;28;20053;-62
2022/12/25 05:16:59;;;;;;;28.85;9.10;;;6.80;99.90;;;;;;5008073;28;20165;-63
2022/12/25 05:19:26;;;;;;;59.17;12.15;;;6.80;99.90;;;;;;5010442;28;20037;-62
2022/12/25 05:21:52;;;;;;;58.10;13.23;;;6.90;99.90;;;;;;5000870;28;20058;-63
2022/12/25 05:24:19;;;;;;;55.05;11.48;;;6.90;99.90;;;;;;5008346;28;20052;-62
2022/12/25 05:26:45;;;;;;;55.28;11.82;;;6.90;99.90;;;;;;5009736;28;20473;-63
2022/12/25 05:29:11;;;;;;;46.55;10.18;;;7.00;99.90;;;;;;4994945;28;20045;-63
2022/12/25 05:31:37;;;;;;;44.30;9.82;;;7.00;99.90;;;;;;5011401;28;20049;-62
2022/12/25 05:34:03;;;;;;;42.25;8.63;;;7.00;99.90;;;;;;5018797;28;20049;-62
2022/12/25 05:36:29;;;;;;;65.47;13.38;;;7.10;99.90;;;;;;5010266;28;20434;-62
2022/12/25 05:38:54;;;;;;;68.78;13.93;;;7.10;99.90;;;;;;5025827;28;20071;-63
2022/12/25 05:41:20;;;;;;;62.40;14.15;;;7.10;99.90;;;;;;5027670;28;20049;-63
2022/12/25 05:43:46;;;;;;;58.50;13.55;;;7.10;99.90;;;;;;5026209;28;20038;-62
2022/12/25 05:46:12;;;;;;;69.47;13.82;;;7.10;99.90;;;;;;5027241;28;20096;-63
2022/12/25 05:48:38;;;;;;;69.72;14.73;;;7.10;99.90;;;;;;5026685;28;20054;-62
2022/12/25 05:51:06;;;;;;;60.88;14.38;;;7.10;99.90;;;;;;5026477;28;20049;-63
2022/12/25 05:53:32;;;;;;;71.53;15.00;;;7.10;99.90;;;;;;5021136;28;20056;-63
2022/12/25 05:56:01;;;;;;;76.97;14.75;;;7.20;99.90;;;;;;5008762;28;20038;-63
2022/12/25 05:58:28;;;;;;;65.47;14.35;;;7.20;99.90;;;;;;5008237;28;20461;-63
2022/12/25 06:00:54;;;;;;;78.15;13.88;;;7.20;99.90;;;;;;5019156;28;20034;-62
2022/12/25 06:03:20;;;;;;;78.93;16.05;;;7.20;99.90;;;;;;5017892;28;20593;-63
2022/12/25 06:05:47;;;;;;;97.72;17.50;;;7.20;99.90;;;;;;5014686;28;20041;-63
2022/12/25 06:08:13;;;;;;;71.97;17.23;;;7.20;99.90;;;;;;5026475;28;20188;-63
2022/12/25 06:10:38;;;;;;;101.68;16.73;;;7.20;99.90;;;;;;5013263;28;20137;-63
2022/12/25 06:13:05;;;;;;;88.05;18.30;;;7.20;99.90;;;;;;5008243;28;20049;-63
2022/12/25 06:15:30;;;;;;;92.30;15.38;;;7.30;99.90;;;;;;5027027;28;20041;-63
2022/12/25 06:17:59;;;;;;;55.20;13.75;;;7.30;99.90;;;;;;5024556;28;20045;-63
2022/12/25 06:20:25;;;;;;;85.47;17.75;;;7.30;99.90;;;;;;5027156;28;20044;-63
2022/12/25 06:22:51;;;;;;;97.43;17.15;;;7.30;99.90;;;;;;5025478;28;20042;-63
2022/12/25 06:25:16;;;;;;;92.88;14.98;;;7.30;99.90;;;;;;5026626;28;20124;-63
2022/12/25 06:27:42;;;;;;;73.72;16.23;;;7.30;99.90;;;;;;5026092;28;20041;-63
2022/12/25 06:30:09;;;;;;;79.75;14.77;;;7.40;99.90;;;;;;5025597;28;20496;-63
2022/12/25 06:32:35;;;;;;;89.85;15.02;;;7.40;99.90;;;;;;5027090;28;20049;-63
2022/12/25 06:35:00;;;;;;;56.63;14.30;;;7.40;99.90;;;;;;5025341;28;20052;-63
2022/12/25 06:37:26;;;;;;;80.75;17.02;;;7.50;99.90;;;;;;5026690;28;20045;-63
2022/12/25 06:39:52;;;;;;;89.80;16.83;;;7.40;99.90;;;;;;5024982;28;20500;-62
2022/12/25 06:42:17;;;;;;;110.80;17.80;;;7.50;99.90;;;;;;5008779;28;20045;-63
2022/12/25 06:44:43;;;;;;;75.53;17.13;;;7.50;99.90;;;;;;5025831;28;20049;-63
2022/12/25 06:47:09;;;;;;;61.15;15.32;;;7.50;99.90;;;;;;5025527;28;20079;-62
2022/12/25 06:49:35;;;;;;;89.90;19.17;;;7.50;99.90;;;;;;5026352;28;20176;-63
2022/12/25 06:52:01;;;;;;;76.50;18.73;;;7.60;99.90;;;;;;5025294;28;20120;-63
2022/12/25 06:54:27;;;;;;;74.38;17.20;;;7.60;99.90;;;;;;5026590;28;20060;-63
2022/12/25 06:56:52;;;;;;;80.57;17.85;;;7.60;99.90;;;;;;5024824;28;20388;-63
2022/12/25 06:59:19;;;;;;;75.05;16.38;;;7.60;99.90;;;;;;5026489;28;20052;-63
2022/12/25 07:01:56;;;;;;;64.55;16.00;;;7.70;99.90;;;;;;5025316;28;20507;-63
2022/12/25 07:04:31;;;;;;;62.80;15.07;;;7.70;99.90;;;;;;5026167;28;20056;-63
2022/12/25 07:06:58;;;;;;;98.03;17.17;;;7.70;99.90;;;;;;5025681;28;20068;-63
2022/12/25 07:09:24;;;;;;;76.28;17.70;;;7.70;99.90;;;;;;5007236;28;20053;-63
2022/12/25 07:11:50;;;;;;;85.30;16.45;;;7.70;99.90;;;;;;5026390;28;20132;-63
2022/12/25 07:14:18;;;;;;;66.45;14.02;;;7.70;99.90;;;;;;5006956;28;20655;-63
2022/12/25 07:16:44;;;;;;;92.47;18.30;;;7.70;99.90;;;;;;5025824;28;20045;-63
2022/12/25 07:19:10;;;;;;;68.72;16.58;;;7.70;99.90;;;;;;5024716;28;20041;-63
2022/12/25 07:21:36;;;;;;;71.70;17.73;;;7.70;99.90;;;;;;5007519;28;20067;-63
2022/12/25 07:24:02;;;;;;;76.28;16.00;;;7.70;99.90;;;;;;4991301;28;20046;-63
2022/12/25 07:26:28;;;;;;;72.53;18.30;;;7.70;99.90;;;;;;5004222;28;20446;-63
2022/12/25 07:28:55;;;;;;;89.30;17.40;;;7.70;99.90;;;;;;4999292;28;20048;-63
2022/12/25 07:31:21;;;;;;;71.53;16.48;;;7.70;99.90;;;;;;5006263;28;20045;-63
2022/12/25 07:33:47;;;;;;;76.53;17.98;;;7.80;99.90;;;;;;5025587;28;20049;-63
2022/12/25 07:36:13;;;;;;;74.00;17.58;;;7.80;99.90;;;;;;5024649;28;20051;-63
2022/12/25 07:38:48;;;;;;;72.75;17.55;;;7.80;99.90;;;;;;5025380;28;20128;-63
2022/12/25 07:41:14;;;;;;;82.97;18.45;;;7.80;99.90;;;;;;5024354;28;20056;-63
2022/12/25 07:43:43;;;;;;;82.57;17.33;;;7.80;99.90;;;;;;5006978;28;20053;-63
2022/12/25 07:46:09;;;;;;;80.18;19.95;;;7.80;99.90;;;;;;4988057;28;20527;-63
2022/12/25 07:48:35;;;;;;;81.68;19.88;;;7.80;99.90;;;;;;5023826;28;20924;-63
2022/12/25 07:51:09;;;;;;;67.50;20.27;;;7.90;99.90;;;;;;5025301;28;20080;-63
2022/12/25 07:53:36;;;;;;;84.68;21.45;;;7.90;99.90;;;;;;5024492;28;20118;-63
2022/12/25 07:56:13;;;;;;;73.00;19.23;;;7.90;99.90;;;;;;5024436;28;20044;-63
2022/12/25 07:58:40;;;;;;;70.82;19.92;;;7.90;99.90;;;;;;5024806;28;20488;-63
2022/12/25 08:01:12;;;;;;;76.10;19.80;;;7.90;99.90;;;;;;5024303;28;20124;-63
2022/12/25 08:03:37;;;;;;;57.88;17.52;;;7.90;99.90;;;;;;5025211;28;20128;-63
2022/12/25 08:06:08;;;;;;;67.15;19.17;;;7.90;99.90;;;;;;5023450;28;20749;-63
2022/12/25 08:08:35;;;;;;;54.55;17.20;;;7.90;99.90;;;;;;5024302;28;20045;-63
2022/12/25 08:11:01;;;;;;;55.97;17.00;;;8.00;99.90;;;;;;5014258;28;20519;-63
2022/12/25 08:13:31;;;;;;;62.55;16.48;;;8.00;99.90;;;;;;5006040;28;20033;-63
2022/12/25 08:15:58;;;;;;;60.28;18.08;;;8.10;99.90;;;;;;4990505;28;20045;-63
2022/12/25 08:18:24;;;;;;;68.93;16.85;;;8.10;99.90;;;;;;4997226;28;20437;-62
2022/12/25 08:20:49;;;;;;;49.80;16.85;;;8.10;99.90;;;;;;4990720;28;20045;-63
2022/12/25 08:23:15;;;;;;;60.15;16.88;;;8.10;99.90;;;;;;5017802;28;20536;-63
2022/12/25 08:25:42;;;;;;;41.33;15.30;;;8.10;99.90;;;;;;5006848;28;20053;-63
2022/12/25 08:28:07;;;;;;;51.92;16.30;;;8.10;99.90;;;;;;5022920;28;20400;-63
2022/12/25 08:30:33;;;;;;;53.50;16.58;;;8.10;99.90;;;;;;5024607;28;20053;-63
2022/12/25 08:33:00;;;;;;;63.15;16.52;;;8.10;99.90;;;;;;5024332;28;20177;-63
2022/12/25 08:35:25;;;;;;;59.42;16.83;;;8.10;99.90;;;;;;5018620;28;20033;-63
2022/12/25 08:37:51;;;;;;;57.78;16.65;;;8.10;99.90;;;;;;5024564;28;20511;-63
2022/12/25 08:40:17;;;;;;;55.50;17.50;;;8.20;99.90;;;;;;5023727;28;20041;-63
2022/12/25 08:42:43;;;;;;;51.08;15.45;;;8.20;99.90;;;;;;5028741;28;20049;-63
2022/12/25 08:45:09;;;;;;;73.63;15.73;;;8.20;99.90;;;;;;5026992;28;20465;-62
2022/12/25 08:47:35;;;;;;;46.00;13.77;;;8.20;99.90;;;;;;5010069;28;20562;-63
2022/12/25 08:50:00;;;;;;;42.65;13.65;;;8.20;99.90;;;;;;5028224;28;20053;-63
2022/12/25 08:52:27;;;;;;;62.45;15.18;;;8.10;99.90;;;;;;5009466;28;20055;-63
2022/12/25 08:54:53;;;;;;;45.40;13.85;;;8.20;99.90;;;;;;5010673;28;20049;-63
2022/12/25 08:57:19;;;;;;;38.80;14.10;;;8.20;99.90;;;;;;4991943;28;20037;-63
2022/12/25 08:59:45;;;;;;;38.47;13.40;;;8.20;99.90;;;;;;5028369;28;20033;-63
2022/12/25 09:02:11;;;;;;;44.33;14.65;;;8.20;99.90;;;;;;5004614;28;20103;-63
2022/12/25 09:04:37;;;;;;;34.80;13.10;;;8.20;99.90;;;;;;5011106;28;20096;-62
2022/12/25 09:07:03;;;;;;;37.05;12.82;;;8.20;99.90;;;;;;5011004;28;20045;-63
2022/12/25 09:09:29;;;;;;;40.53;12.43;;;8.20;99.90;;;;;;5021385;28;20052;-63
2022/12/25 09:11:55;;;;;;;38.15;12.13;;;8.20;99.90;;;;;;5019521;28;20045;-63
2022/12/25 09:14:21;;;;;;;38.50;12.80;;;8.20;99.90;;;;;;5024783;28;20041;-63
2022/12/25 09:16:49;;;;;;;42.60;12.68;;;8.20;99.90;;;;;;4991481;28;20086;-63
2022/12/25 09:19:15;;;;;;;32.13;11.32;;;8.20;99.90;;;;;;4994608;28;20044;-63
2022/12/25 09:21:41;;;;;;;30.63;11.13;;;8.20;99.90;;;;;;5016394;28;20037;-63
2022/12/25 09:24:07;;;;;;;40.92;11.20;;;8.20;99.90;;;;;;5026761;28;20049;-63
2022/12/25 09:26:33;;;;;;;36.42;11.80;;;8.20;99.90;;;;;;5027341;28;20046;-63
2022/12/25 09:28:59;;;;;;;34.47;12.02;;;8.20;99.90;;;;;;5027533;28;20053;-63
2022/12/25 09:31:24;;;;;;;41.92;11.95;;;8.20;99.90;;;;;;5026618;28;20038;-63
2022/12/25 09:33:54;;;;;;;35.47;12.40;;;8.20;99.90;;;;;;5027276;28;20045;-63
2022/12/25 09:36:22;;;;;;;38.95;11.77;;;8.20;99.90;;;;;;5007966;28;20128;-62
2022/12/25 09:38:47;;;;;;;35.35;11.55;;;8.20;99.90;;;;;;5027077;28;20060;-63
2022/12/25 09:41:29;;;;;;;36.30;11.68;;;8.20;99.90;;;;;;5026682;28;20045;-63
2022/12/25 09:44:17;;;;;;;39.35;11.38;;;8.20;99.90;;;;;;5027227;28;20582;-63
2022/12/25 09:46:49;;;;;;;33.38;11.57;;;8.20;99.90;;;;;;5027193;28;20136;-63
2022/12/25 09:49:30;;;;;;;30.92;10.60;;;8.20;99.90;;;;;;5026036;28;20041;-63
2022/12/25 09:52:01;;;;;;;31.13;10.90;;;8.30;99.90;;;;;;5027088;28;20125;-63
2022/12/25 09:54:57;;;;;;;43.17;11.60;;;8.30;99.90;;;;;;5025215;28;20599;-63
2022/12/25 09:57:25;;;;;;;29.77;10.85;;;8.20;99.90;;;;;;5024514;28;20457;-63
2022/12/25 09:59:54;;;;;;;32.35;10.52;;;8.20;99.90;;;;;;5027246;28;20049;-62
2022/12/25 10:02:38;;;;;;;34.92;10.50;;;8.20;99.90;;;;;;5007789;28;20056;-63
2022/12/25 10:05:07;;;;;;;31.60;10.15;;;8.20;99.90;;;;;;5027100;28;20537;-63
2022/12/25 10:07:54;;;;;;;33.30;10.43;;;8.20;99.90;;;;;;5005751;28;20083;-63
2022/12/25 10:10:39;;;;;;;22.95;9.63;;;8.20;99.90;;;;;;4993345;28;20041;-63
2022/12/25 10:13:29;;;;;;;31.30;10.57;;;8.20;99.90;;;;;;5020543;28;20185;-63
2022/12/25 10:16:03;;;;;;;;;;;8.20;99.90;;;;;;5007558;28;20042;-63
2022/12/25 10:18:36;;;;;;;32.03;10.13;;;8.20;99.90;;;;;;5015401;28;19925;-63
2022/12/25 10:21:04;;;;;;;32.00;9.82;;;8.20;99.90;;;;;;5023566;28;20045;-63
2022/12/25 10:23:33;;;;;;;32.70;10.68;;;8.20;99.90;;;;;;5016214;28;20053;-63
2022/12/25 10:25:59;;;;;;;28.80;9.52;;;8.30;99.90;;;;;;5022327;28;20583;-63
2022/12/25 10:28:38;;;;;;;34.88;11.02;;;8.30;99.90;;;;;;5007519;28;20063;-63
2022/12/25 10:31:34;;;;;;;25.73;10.50;;;8.30;99.90;;;;;;5003382;28;20500;-63
2022/12/25 10:34:00;;;;;;;25.80;9.43;;;8.40;99.90;;;;;;5009790;28;20045;-63
2022/12/25 10:36:28;;;;;;;28.63;10.63;;;8.40;99.90;;;;;;5025665;28;20049;-63
2022/12/25 10:38:54;;;;;;;36.00;9.95;;;8.40;99.90;;;;;;5025947;28;20046;-63
2022/12/25 10:41:39;;;;;;;30.90;9.50;;;8.40;99.90;;;;;;4995504;28;20089;-63
2022/12/25 10:44:19;;;;;;;33.80;10.10;;;8.50;99.90;;;;;;5025919;28;20506;-63
2022/12/25 10:46:51;;;;;;;25.85;9.50;;;8.50;99.90;;;;;;5025513;28;20072;-63
2022/12/25 10:49:20;;;;;;;32.97;8.80;;;8.50;99.90;;;;;;4991646;28;20077;-63
2022/12/25 10:51:46;;;;;;;26.75;8.98;;;8.50;99.90;;;;;;5025604;28;20121;-63
2022/12/25 10:54:30;;;;;;;20.75;8.93;;;8.50;99.90;;;;;;5024806;28;20124;-63
2022/12/25 10:56:57;;;;;;;26.92;8.55;;;8.50;99.90;;;;;;5025904;28;20054;-62
2022/12/25 10:59:28;;;;;;;28.33;9.02;;;8.60;99.90;;;;;;5025631;28;20360;-63
2022/12/25 11:01:55;;;;;;;23.50;8.57;;;8.60;99.90;;;;;;5025340;28;20061;-63
2022/12/25 11:04:27;;;;;;;28.05;9.15;;;8.60;99.90;;;;;;5024983;28;20037;-63
2022/12/25 11:07:23;;;;;;;29.73;9.50;;;8.60;99.90;;;;;;5007803;28;20383;-63
2022/12/25 11:09:59;;;;;;;20.67;8.13;;;8.60;99.90;;;;;;5009554;28;20488;-63
2022/12/25 11:12:33;;;;;;;26.73;7.38;;;8.60;99.90;;;;;;5020740;28;20049;-62
2022/12/25 11:15:21;;;;;;;19.20;8.73;;;8.60;99.90;;;;;;5007748;28;20131;-62
2022/12/25 11:17:49;;;;;;;20.77;7.28;;;8.60;99.90;;;;;;5025452;28;20475;-62
2022/12/25 11:20:18;;;;;;;18.33;6.57;;;8.70;99.90;;;;;;5015619;28;20179;-63
2022/12/25 11:22:46;;;;;;;20.45;8.40;;;8.80;99.90;;;;;;5010820;28;20048;-63
2022/12/25 11:25:14;;;;;;;26.65;7.85;;;8.70;99.90;;;;;;5005154;28;20120;-63
2022/12/25 11:27:41;;;;;;;24.63;7.55;;;8.70;99.90;;;;;;5009161;28;20042;-63
2022/12/25 11:30:14;;;;;;;19.98;7.60;;;8.80;99.90;;;;;;5020140;28;20056;-63
2022/12/25 11:32:48;;;;;;;19.65;6.82;;;8.80;99.90;;;;;;5001546;28;20488;-63
2022/12/25 11:35:16;;;;;;;17.73;7.97;;;8.80;99.90;;;;;;5013095;28;20399;-63
2022/12/25 11:37:48;;;;;;;19.67;7.47;;;8.90;99.90;;;;;;5010992;28;20084;-64
2022/12/25 11:40:34;;;;;;;17.20;7.18;;;8.90;99.90;;;;;;5005935;28;20053;-63
2022/12/25 11:43:20;;;;;;;18.15;7.55;;;8.90;99.90;;;;;;5006873;28;20064;-63
2022/12/25 11:45:55;;;;;;;23.88;7.65;;;8.90;99.90;;;;;;5023495;28;20049;-63
2022/12/25 11:48:35;;;;;;;14.80;7.90;;;8.90;99.90;;;;;;5024967;28;20072;-63
2022/12/25 11:51:04;;;;;;;22.55;6.65;;;8.90;99.90;;;;;;5006531;28;20033;-63
2022/12/25 11:53:42;;;;;;;30.23;7.50;;;8.90;99.90;;;;;;5024769;28;20124;-62
2022/12/25 11:56:19;;;;;;;18.83;7.00;;;8.90;99.90;;;;;;5025255;28;20049;-63
2022/12/25 11:59:12;;;;;;;18.65;6.97;;;8.90;99.90;;;;;;5023859;28;20072;-63
2022/12/25 12:01:55;;;;;;;14.48;6.75;;;8.90;99.90;;;;;;4978680;28;20136;-63
2022/12/25 12:04:30;;;;;;;17.48;6.78;;;8.90;99.90;;;;;;5024863;28;20037;-63
2022/12/25 12:07:04;;;;;;;17.13;6.68;;;8.90;99.90;;;;;;5024132;28;20045;-63
2022/12/25 12:09:44;;;;;;;18.70;7.35;;;8.80;99.90;;;;;;5019262;28;20072;-62
2022/12/25 12:12:39;;;;;;;15.57;6.95;;;8.80;99.90;;;;;;5000430;28;20051;-63
2022/12/25 12:15:43;;;;;;;16.65;6.90;;;8.80;99.90;;;;;;5007799;28;20500;-62
2022/12/25 12:18:27;;;;;;;14.82;6.80;;;8.80;99.90;;;;;;4993007;28;20060;-63
2022/12/25 12:21:17;;;;;;;16.33;6.50;;;8.70;99.90;;;;;;5021598;28;20042;-63
2022/12/25 12:23:54;;;;;;;17.30;6.82;;;8.70;99.90;;;;;;5019916;28;20139;-63
2022/12/25 12:26:29;;;;;;;19.35;6.03;;;8.70;99.90;;;;;;4987007;28;20084;-62
2022/12/25 12:29:00;;;;;;;19.25;6.78;;;8.60;99.90;;;;;;4996727;28;20138;-63
2022/12/25 12:31:42;;;;;;;17.52;6.68;;;8.70;99.90;;;;;;5009579;28;20053;-63
2022/12/25 12:34:27;;;;;;;15.27;5.60;;;8.70;99.90;;;;;;4999677;28;20050;-63
2022/12/25 12:37:03;;;;;;;14.82;5.65;;;8.70;99.90;;;;;;5017483;28;20056;-62
2022/12/25 12:39:38;;;;;;;18.00;5.93;;;8.70;99.90;;;;;;5012227;28;20090;-63
2022/12/25 12:42:21;;;;;;;17.85;7.03;;;8.70;99.90;;;;;;4998642;28;20046;-62
2022/12/25 12:44:49;;;;;;;16.35;6.90;;;8.70;99.90;;;;;;4992362;28;20132;-62
2022/12/25 12:47:37;;;;;;;21.02;7.40;;;8.70;99.90;;;;;;5010781;28;20136;-63
2022/12/25 12:50:04;;;;;;;22.42;8.00;;;8.70;99.90;;;;;;5006654;28;20506;-63
2022/12/25 12:52:39;;;;;;;18.05;7.47;;;8.80;99.90;;;;;;5018826;28;20495;-63
2022/12/25 12:55:13;;;;;;;15.93;6.40;;;8.80;99.90;;;;;;5014258;28;20049;-63
2022/12/25 12:57:39;;;;;;;19.55;7.55;;;8.80;99.90;;;;;;5018462;28;20075;-63
2022/12/25 13:00:25;;;;;;;14.50;7.32;;;8.80;99.90;;;;;;5010912;28;20042;-63
2022/12/25 13:03:06;;;;;;;17.90;6.82;;;8.80;99.90;;;;;;5015363;28;20052;-63
2022/12/25 13:06:13;;;;;;;18.15;7.22;;;8.90;99.90;;;;;;5005459;28;20243;-63
2022/12/25 13:08:57;;;;;;;13.57;6.15;;;8.80;99.90;;;;;;4940169;29;20114;-63
2022/12/25 13:11:29;;;;;;;16.02;6.72;;;8.80;99.90;;;;;;4931450;29;20122;-63
2022/12/25 13:13:59;;;;;;;19.75;7.40;;;8.90;99.90;;;;;;4983225;28;20065;-63
2022/12/25 13:16:34;;;;;;;24.20;7.72;;;8.80;99.90;;;;;;5023192;28;20041;-63
2022/12/25 13:19:07;;;;;;;11.85;6.82;;;8.90;99.90;;;;;;5006638;28;20065;-63
2022/12/25 13:21:33;;;;;;;18.20;6.63;;;8.90;99.90;;;;;;4989846;28;20447;-63
2022/12/25 13:24:03;;;;;;;19.92;6.90;;;8.90;99.90;;;;;;5023543;28;20037;-63
2022/12/25 13:26:29;;;;;;;15.57;6.13;;;8.90;99.90;;;;;;5024052;28;20079;-62
2022/12/25 13:28:55;;;;;;;18.35;7.13;;;9.00;99.90;;;;;;5027010;28;20462;-63
2022/12/25 13:31:25;;;;;;;24.05;6.90;;;8.90;99.90;;;;;;5027661;28;20049;-63
2022/12/25 13:33:57;;;;;;;17.27;6.80;;;9.00;99.90;;;;;;5026600;28;20384;-62
2022/12/25 13:36:24;;;;;;;16.00;7.18;;;8.90;99.90;;;;;;5023903;28;20041;-63
2022/12/25 13:38:53;;;;;;;18.45;6.13;;;8.90;99.90;;;;;;5026712;28;20042;-63
2022/12/25 13:44:26;;;;;;;14.77;6.40;;;8.90;99.90;;;;;;5017448;28;20483;-63
2022/12/25 13:46:52;;;;;;;17.02;6.55;;;8.90;99.90;;;;;;5007635;28;20050;-62
2022/12/25 13:49:21;;;;;;;11.90;6.20;;;8.90;99.90;;;;;;5012999;28;20511;-63
2022/12/25 13:51:47;;;;;;;22.42;6.78;;;8.90;99.90;;;;;;5006446;28;20037;-63
2022/12/25 13:54:15;;;;;;;10.95;5.93;;;8.90;99.90;;;;;;5025147;28;20411;-62
2022/12/25 13:56:46;;;;;;;12.18;5.63;;;8.80;99.90;;;;;;4994597;28;20085;-63
2022/12/25 13:59:18;;;;;;;15.57;6.03;;;8.80;99.90;;;;;;5017123;28;20147;-63
2022/12/25 14:01:45;;;;;;;13.20;5.57;;;8.80;99.90;;;;;;5000129;28;20608;-63
2022/12/25 14:04:16;;;;;;;15.02;6.03;;;8.80;99.90;;;;;;5025526;28;20038;-63
2022/12/25 14:06:42;;;;;;;20.20;6.68;;;8.80;99.90;;;;;;5027159;28;20034;-63
2022/12/25 14:09:09;;;;;;;17.08;6.43;;;8.80;99.90;;;;;;5020585;28;20030;-63
2022/12/25 14:11:37;;;;;;;17.27;5.95;;;8.80;99.90;;;;;;5004158;28;20053;-62
2022/12/25 14:14:18;;;;;;;17.25;5.82;;;8.80;99.90;;;;;;5008717;28;20053;-63
2022/12/25 14:16:48;;;;;;;14.98;5.63;;;8.70;99.90;;;;;;5026482;28;20045;-63
2022/12/25 14:19:26;;;;;;;18.13;5.97;;;8.70;99.90;;;;;;5026483;28;20038;-63
2022/12/25 14:22:09;;;;;;;17.33;6.40;;;8.70;99.90;;;;;;5025915;28;20124;-63
2022/12/25 14:24:36;;;;;;;10.95;5.35;;;8.60;99.90;;;;;;5026964;28;20049;-63
2022/12/25 14:27:05;;;;;;;13.77;5.45;;;8.70;99.90;;;;;;5009056;28;20129;-63
2022/12/25 14:29:37;;;;;;;17.27;6.03;;;8.60;99.90;;;;;;5026076;28;20046;-63
2022/12/25 14:32:13;;;;;;;23.55;5.80;;;8.60;99.90;;;;;;5025500;28;20118;-63
2022/12/25 14:34:41;;;;;;;16.30;5.72;;;8.60;99.90;;;;;;5025904;28;20400;-63
2022/12/25 14:37:17;;;;;;;10.73;5.00;;;8.60;99.90;;;;;;5026216;28;20049;-63
2022/12/25 14:39:46;;;;;;;16.92;5.45;;;8.60;99.90;;;;;;5026363;28;20419;-62
2022/12/25 14:42:19;;;;;;;15.40;5.68;;;8.60;99.90;;;;;;5025439;28;20064;-63
2022/12/25 14:44:55;;;;;;;17.77;5.88;;;8.60;99.90;;;;;;5026609;28;20056;-62